createdAt,value
2022-11-20T00:01:46.346Z,94.20
2022-11-20T00:04:31.786Z,94.80
2022-11-20T00:07:17.500Z,99.00
2022-11-20T00:10:03.127Z,99.90
2022-11-20T00:12:48.389Z,99.90
2022-11-20T00:15:34.574Z,99.90
2022-11-20T00:18:19.736Z,99.90
2022-11-20T00:21:13.451Z,99.90
2022-11-20T00:23:59.202Z,99.90
2022-11-20T00:26:45.181Z,99.90
2022-11-20T00:29:30.668Z,99.90
2022-11-20T00:32:16.290Z,99.90
2022-11-20T00:35:01.886Z,99.90
2022-11-20T00:37:47.350Z,99.90
2022-11-20T00:40:32.972Z,99.90
2022-11-20T00:43:18.122Z,99.90
2022-11-20T00:46:09.880Z,99.90
2022-11-20T00:48:55.400Z,99.90
2022-11-20T00:51:40.922Z,99.90
2022-11-20T00:54:26.518Z,99.90
2022-11-20T00:57:12.184Z,99.90
2022-11-20T00:59:57.578Z,99.90
2022-11-20T01:02:43.001Z,99.90
2022-11-20T01:05:28.546Z,99.90
2022-11-20T01:08:14.167Z,99.90
2022-11-20T01:11:04.256Z,99.90
2022-11-20T01:13:51.593Z,99.90
2022-11-20T01:16:46.641Z,99.90
2022-11-20T01:19:32.042Z,99.90
2022-11-20T01:22:17.730Z,99.90
2022-11-20T01:25:03.125Z,99.90
2022-11-20T01:27:48.388Z,99.90
2022-11-20T01:30:33.884Z,99.90
2022-11-20T01:33:19.431Z,99.90
2022-11-20T01:36:06.907Z,99.90
2022-11-20T01:38:54.225Z,99.90
2022-11-20T01:41:59.139Z,99.90
2022-11-20T01:45:00.258Z,99.90
2022-11-20T01:47:47.352Z,99.90
2022-11-20T01:50:34.770Z,99.90
2022-11-20T01:53:24.912Z,99.90
2022-11-20T01:56:13.012Z,99.90
2022-11-20T01:59:02.847Z,99.90
2022-11-20T02:01:48.320Z,99.90
2022-11-20T02:04:33.578Z,99.90
2022-11-20T02:07:19.948Z,99.90
2022-11-20T02:10:05.681Z,99.90
2022-11-20T02:13:09.450Z,99.90
2022-11-20T02:15:55.066Z,99.90
2022-11-20T02:18:41.372Z,99.90
2022-11-20T02:21:44.449Z,99.90
2022-11-20T02:24:29.856Z,99.90
2022-11-20T02:27:17.043Z,99.90
2022-11-20T02:30:08.636Z,99.90
2022-11-20T02:32:53.830Z,99.90
2022-11-20T02:35:43.563Z,99.90
2022-11-20T02:38:29.153Z,99.90
2022-11-20T02:41:14.284Z,99.90
2022-11-20T02:43:59.919Z,99.90
2022-11-20T02:46:45.459Z,99.90
2022-11-20T02:49:31.187Z,99.90
2022-11-20T02:52:16.544Z,99.90
2022-11-20T02:55:02.148Z,99.90
2022-11-20T02:57:47.684Z,99.90
2022-11-20T03:00:33.208Z,99.90
2022-11-20T03:03:18.540Z,99.90
2022-11-20T03:06:04.452Z,99.90
2022-11-20T03:08:49.764Z,99.90
2022-11-20T03:11:35.370Z,99.90
2022-11-20T03:14:20.977Z,99.90
2022-11-20T03:17:06.560Z,99.90
2022-11-20T03:19:52.113Z,99.90
2022-11-20T03:22:37.783Z,99.90
2022-11-20T03:25:23.491Z,99.90
2022-11-20T03:28:08.694Z,99.90
2022-11-20T03:30:54.181Z,99.90
2022-11-20T03:33:41.297Z,99.90
2022-11-20T03:36:27.652Z,99.90
2022-11-20T03:39:13.244Z,99.90
2022-11-20T03:41:58.730Z,99.90
2022-11-20T03:44:44.153Z,99.90
2022-11-20T03:47:29.728Z,99.90
2022-11-20T03:50:15.755Z,99.90
2022-11-20T03:53:01.375Z,99.90
2022-11-20T03:55:51.465Z,99.90
2022-11-20T03:58:38.316Z,99.90
2022-11-20T04:01:33.221Z,99.90
2022-11-20T04:04:18.999Z,99.90
2022-11-20T04:07:04.672Z,99.90
2022-11-20T04:09:49.936Z,99.90
2022-11-20T04:12:35.208Z,99.90
2022-11-20T04:15:20.858Z,99.90
2022-11-20T04:18:06.334Z,99.90
2022-11-20T04:20:51.845Z,99.90
2022-11-20T04:23:37.479Z,99.90
2022-11-20T04:26:25.096Z,99.90
2022-11-20T04:29:12.789Z,99.90
2022-11-20T04:31:58.306Z,99.90
2022-11-20T04:34:43.912Z,99.90
2022-11-20T04:37:29.453Z,99.90
2022-11-20T04:40:15.014Z,99.90
2022-11-20T04:43:00.568Z,99.90
2022-11-20T04:45:52.584Z,99.90
2022-11-20T04:48:38.028Z,99.90
2022-11-20T04:51:23.666Z,99.90
2022-11-20T04:54:10.156Z,99.90
2022-11-20T04:56:55.325Z,99.90
2022-11-20T04:59:40.851Z,99.90
2022-11-20T05:02:26.286Z,99.90
2022-11-20T05:05:11.889Z,99.90
2022-11-20T05:07:58.676Z,99.90
2022-11-20T05:10:44.156Z,99.90
2022-11-20T05:13:29.810Z,99.90
2022-11-20T05:16:18.655Z,99.90
2022-11-20T05:19:04.034Z,99.90
2022-11-20T05:21:49.579Z,99.90
2022-11-20T05:24:35.106Z,99.90
2022-11-20T05:27:20.786Z,99.90
2022-11-20T05:30:06.830Z,99.90
2022-11-20T05:32:52.050Z,99.90
2022-11-20T05:35:37.698Z,99.90
2022-11-20T05:38:23.120Z,99.90
2022-11-20T05:41:14.783Z,99.90
2022-11-20T05:44:00.552Z,99.90
2022-11-20T05:46:45.871Z,99.90
2022-11-20T05:49:31.495Z,99.90
2022-11-20T05:52:16.785Z,99.90
2022-11-20T05:55:02.616Z,99.90
2022-11-20T05:57:48.156Z,99.90
2022-11-20T06:00:33.731Z,99.90
2022-11-20T06:03:19.100Z,99.90
2022-11-20T06:06:06.422Z,99.90
2022-11-20T06:08:51.793Z,99.90
2022-11-20T06:11:37.289Z,99.90
2022-11-20T06:14:22.858Z,99.90
2022-11-20T06:17:08.165Z,99.90
2022-11-20T06:19:53.707Z,99.90
2022-11-20T06:22:39.633Z,99.90
2022-11-20T06:25:24.943Z,99.90
2022-11-20T06:28:10.762Z,99.90
2022-11-20T06:30:56.051Z,99.90
2022-11-20T06:33:42.466Z,99.90
2022-11-20T06:36:27.917Z,99.90
2022-11-20T06:39:13.203Z,99.90
2022-11-20T06:41:59.311Z,99.90
2022-11-20T06:44:44.976Z,99.90
2022-11-20T06:47:30.077Z,99.90
2022-11-20T06:50:15.609Z,99.90
2022-11-20T06:53:05.354Z,99.90
2022-11-20T06:55:53.554Z,99.90
2022-11-20T06:58:38.979Z,99.90
2022-11-20T07:01:24.419Z,99.90
2022-11-20T07:04:09.829Z,99.90
2022-11-20T07:06:55.066Z,99.90
2022-11-20T07:09:40.527Z,99.90
2022-11-20T07:12:26.073Z,99.90
2022-11-20T07:15:11.580Z,99.90
2022-11-20T07:18:00.253Z,99.90
2022-11-20T07:20:45.612Z,99.90
2022-11-20T07:23:31.113Z,99.90
2022-11-20T07:26:16.766Z,99.90
2022-11-20T07:29:02.134Z,99.90
2022-11-20T07:31:47.456Z,99.90
2022-11-20T07:34:33.091Z,99.90
2022-11-20T07:37:18.539Z,99.90
2022-11-20T07:40:04.666Z,99.90
2022-11-20T07:42:56.479Z,99.90
2022-11-20T07:45:42.091Z,99.90
2022-11-20T07:48:27.792Z,99.90
2022-11-20T07:51:14.441Z,99.90
2022-11-20T07:53:59.906Z,99.90
2022-11-20T07:56:45.338Z,99.90
2022-11-20T07:59:30.739Z,99.90
2022-11-20T08:02:16.329Z,99.90
2022-11-20T08:05:01.992Z,99.90
2022-11-20T08:07:47.565Z,99.90
2022-11-20T08:10:32.908Z,99.90
2022-11-20T08:13:36.917Z,99.90
2022-11-20T08:16:22.752Z,99.90
2022-11-20T08:19:08.628Z,99.90
2022-11-20T08:21:53.768Z,98.80
2022-11-20T08:24:39.351Z,99.90
2022-11-20T08:27:24.905Z,99.90
2022-11-20T08:30:11.092Z,96.90
2022-11-20T08:33:02.116Z,90.90
2022-11-20T08:35:47.525Z,92.10
2022-11-20T08:38:33.724Z,92.60
2022-11-20T08:41:26.783Z,84.50
2022-11-20T08:44:11.947Z,82.10
2022-11-20T08:46:58.013Z,79.90
2022-11-20T08:49:43.445Z,77.70
2022-11-20T08:52:29.074Z,75.20
2022-11-20T08:55:14.733Z,77.60
2022-11-20T08:58:04.795Z,79.40
2022-11-20T09:00:50.535Z,76.50
2022-11-20T09:03:36.189Z,75.80
2022-11-20T09:06:21.518Z,69.70
2022-11-20T09:09:07.240Z,74.10
2022-11-20T09:11:52.675Z,71.00
2022-11-20T09:14:38.139Z,71.00
2022-11-20T09:17:23.774Z,73.60
2022-11-20T09:20:09.431Z,69.70
2022-11-20T09:22:55.021Z,71.70
2022-11-20T09:25:40.451Z,70.20
2022-11-20T09:28:26.590Z,71.30
2022-11-20T09:31:24.039Z,70.70
2022-11-20T09:34:09.316Z,68.00
2022-11-20T09:36:55.128Z,67.70
2022-11-20T09:39:40.435Z,69.40
2022-11-20T09:42:48.630Z,66.60
2022-11-20T09:45:47.327Z,67.60
2022-11-20T09:48:35.800Z,67.30
2022-11-20T09:51:47.200Z,67.90
2022-11-20T09:54:36.680Z,69.60
2022-11-20T09:57:26.445Z,66.60
2022-11-20T10:00:15.293Z,64.00
2022-11-20T10:03:03.088Z,62.90
2022-11-20T10:05:56.101Z,60.70
2022-11-20T10:08:52.842Z,60.90
2022-11-20T10:11:57.239Z,59.50
2022-11-20T10:15:16.473Z,60.20
2022-11-20T10:18:26.570Z,58.70
2022-11-20T10:21:37.035Z,59.70
2022-11-20T10:24:33.661Z,61.30
2022-11-20T10:27:28.001Z,63.50
2022-11-20T10:30:21.033Z,62.60
2022-11-20T10:33:19.053Z,62.40
2022-11-20T10:36:40.061Z,61.00
2022-11-20T10:39:45.338Z,58.90
2022-11-20T10:42:43.688Z,53.40
2022-11-20T10:45:59.815Z,55.00
2022-11-20T10:48:46.904Z,54.40
2022-11-20T10:51:41.108Z,56.40
2022-11-20T10:54:57.586Z,58.10
2022-11-20T10:57:57.737Z,59.50
2022-11-20T11:00:43.278Z,56.70
2022-11-20T11:03:31.346Z,55.60
2022-11-20T11:06:35.481Z,52.80
2022-11-20T11:09:31.073Z,48.40
2022-11-20T11:12:16.715Z,48.20
2022-11-20T11:15:02.028Z,53.10
2022-11-20T11:17:48.764Z,51.20
2022-11-20T11:20:34.145Z,49.00
2022-11-20T11:23:33.641Z,46.40
2022-11-20T11:26:25.089Z,45.00
2022-11-20T11:29:18.907Z,44.00
2022-11-20T11:32:12.446Z,42.60
2022-11-20T11:35:04.398Z,41.80
2022-11-20T11:37:50.399Z,43.00
2022-11-20T11:40:37.208Z,43.80
2022-11-20T11:43:45.199Z,43.70
2022-11-20T11:46:36.135Z,41.70
2022-11-20T11:49:22.534Z,44.30
2022-11-20T11:52:22.239Z,41.00
2022-11-20T11:55:15.364Z,42.50
2022-11-20T11:58:16.763Z,39.90
2022-11-20T12:01:15.232Z,42.50
2022-11-20T12:04:20.562Z,43.20
2022-11-20T12:07:49.061Z,38.60
2022-11-20T12:10:50.074Z,38.20
2022-11-20T12:13:35.158Z,36.70
2022-11-20T12:16:21.911Z,38.00
2022-11-20T12:19:13.596Z,34.50
2022-11-20T12:22:21.665Z,34.60
2022-11-20T12:25:32.263Z,37.30
2022-11-20T12:28:44.432Z,34.80
2022-11-20T12:32:19.616Z,37.60
2022-11-20T12:35:27.736Z,36.70
2022-11-20T12:39:00.839Z,37.40
2022-11-20T12:42:37.298Z,34.20
2022-11-20T12:45:47.954Z,34.10
2022-11-20T12:48:59.637Z,31.00
2022-11-20T12:51:44.876Z,32.90
2022-11-20T12:55:01.069Z,31.10
2022-11-20T12:57:55.245Z,30.60
2022-11-20T13:00:55.757Z,30.00
2022-11-20T13:03:54.833Z,31.10
2022-11-20T13:06:42.634Z,33.10
2022-11-20T13:09:28.598Z,32.00
2022-11-20T13:12:27.821Z,33.40
2022-11-20T13:15:15.999Z,32.90
2022-11-20T13:18:03.636Z,32.70
2022-11-20T13:20:50.608Z,32.50
2022-11-20T13:23:36.002Z,32.80
2022-11-20T13:26:24.545Z,33.40
2022-11-20T13:29:17.101Z,34.80
2022-11-20T13:32:14.199Z,33.70
2022-11-20T13:35:05.388Z,33.50
2022-11-20T13:38:05.713Z,34.20
2022-11-20T13:40:57.672Z,35.70
2022-11-20T13:43:43.880Z,37.40
2022-11-20T13:46:45.408Z,37.30
2022-11-20T13:49:49.745Z,37.40
2022-11-20T13:53:07.459Z,39.70
2022-11-20T13:56:00.071Z,38.00
2022-11-20T13:58:55.761Z,39.20
2022-11-20T14:01:43.255Z,39.40
2022-11-20T14:04:34.108Z,39.80
2022-11-20T14:07:23.167Z,40.60
2022-11-20T14:10:22.725Z,40.70
2022-11-20T14:13:20.785Z,40.80
2022-11-20T14:16:06.463Z,40.40
2022-11-20T14:18:51.804Z,41.00
2022-11-20T14:21:37.131Z,41.30
2022-11-20T14:24:26.287Z,42.10
2022-11-20T14:27:18.608Z,42.30
2022-11-20T14:30:04.526Z,41.60
2022-11-20T14:32:51.874Z,41.10
2022-11-20T14:35:45.597Z,41.50
2022-11-20T14:38:33.466Z,41.40
2022-11-20T14:41:25.003Z,40.60
2022-11-20T14:44:11.408Z,40.50
2022-11-20T14:46:57.887Z,41.20
2022-11-20T14:49:43.892Z,41.50
2022-11-20T14:52:29.647Z,40.00
2022-11-20T14:55:25.563Z,40.70
2022-11-20T14:58:24.376Z,41.50
2022-11-20T15:01:14.424Z,42.50
2022-11-20T15:04:12.186Z,41.00
2022-11-20T15:07:00.436Z,44.50
2022-11-20T15:09:45.736Z,43.30
2022-11-20T15:12:38.579Z,43.80
2022-11-20T15:15:39.929Z,45.30
2022-11-20T15:18:31.491Z,44.30
2022-11-20T15:21:19.337Z,45.20
2022-11-20T15:24:10.238Z,44.90
2022-11-20T15:26:55.901Z,45.10
2022-11-20T15:29:42.604Z,46.10
2022-11-20T15:32:27.760Z,46.60
2022-11-20T15:35:14.717Z,46.30
2022-11-20T15:38:00.048Z,46.40
2022-11-20T15:40:45.683Z,46.60
2022-11-20T15:43:31.288Z,46.80
2022-11-20T15:46:22.648Z,47.00
2022-11-20T15:49:13.780Z,46.90
2022-11-20T15:51:58.985Z,47.00
2022-11-20T15:54:44.396Z,46.90
2022-11-20T15:57:30.160Z,46.30
2022-11-20T16:00:22.164Z,47.10
2022-11-20T16:03:12.215Z,47.20
2022-11-20T16:05:57.414Z,47.00
2022-11-20T16:08:43.149Z,47.50
2022-11-20T16:11:28.496Z,48.30
2022-11-20T16:14:32.641Z,48.90
2022-11-20T16:17:37.886Z,49.20
2022-11-20T16:20:23.306Z,47.60
2022-11-20T16:23:08.736Z,47.90
2022-11-20T16:25:54.141Z,47.20
2022-11-20T16:28:40.128Z,48.30
2022-11-20T16:31:25.828Z,49.10
2022-11-20T16:34:12.641Z,48.70
2022-11-20T16:37:08.791Z,49.90
2022-11-20T16:39:54.365Z,48.40
2022-11-20T16:42:39.818Z,49.20
2022-11-20T16:45:28.850Z,49.40
2022-11-20T16:48:17.456Z,48.20
2022-11-20T16:51:05.480Z,48.70
2022-11-20T16:53:51.025Z,49.40
2022-11-20T16:56:37.573Z,49.80
2022-11-20T16:59:23.231Z,51.00
2022-11-20T17:02:10.486Z,50.60
2022-11-20T17:04:55.793Z,49.10
2022-11-20T17:07:41.418Z,50.50
2022-11-20T17:10:27.193Z,49.60
2022-11-20T17:13:12.850Z,48.40
2022-11-20T17:16:03.244Z,49.70
2022-11-20T17:18:51.516Z,52.10
2022-11-20T17:21:37.574Z,49.50
2022-11-20T17:24:26.393Z,48.20
2022-11-20T17:27:14.355Z,50.00
2022-11-20T17:30:00.046Z,51.90
2022-11-20T17:32:47.084Z,50.90
2022-11-20T17:35:32.504Z,50.40
2022-11-20T17:38:17.953Z,50.70
2022-11-20T17:41:07.235Z,50.40
2022-11-20T17:43:58.219Z,50.60
2022-11-20T17:46:43.640Z,52.40
2022-11-20T17:49:29.308Z,50.40
2022-11-20T17:52:14.836Z,49.90
2022-11-20T17:55:00.353Z,52.00
2022-11-20T17:57:56.888Z,52.00
2022-11-20T18:00:42.342Z,50.70
2022-11-20T18:03:27.698Z,51.90
2022-11-20T18:06:16.357Z,50.80
2022-11-20T18:09:04.116Z,53.20
2022-11-20T18:11:49.764Z,52.90
2022-11-20T18:14:36.496Z,53.20
2022-11-20T18:17:22.281Z,52.90
2022-11-20T18:23:15.200Z,53.90
2022-11-20T18:26:00.943Z,53.70
2022-11-20T18:28:46.728Z,54.50
2022-11-20T18:31:32.221Z,55.10
2022-11-20T18:34:17.578Z,54.20
2022-11-20T18:37:03.340Z,54.90
2022-11-20T18:39:50.462Z,53.30
2022-11-20T18:42:55.973Z,54.40
2022-11-20T18:45:41.280Z,54.30
2022-11-20T18:48:26.839Z,55.70
2022-11-20T18:51:16.172Z,55.00
2022-11-20T18:54:01.902Z,55.60
2022-11-20T18:56:47.456Z,56.00
2022-11-20T18:59:33.009Z,55.40
2022-11-20T19:02:20.497Z,60.50
2022-11-20T19:05:06.049Z,64.70
2022-11-20T19:07:51.438Z,66.80
2022-11-20T19:10:37.581Z,72.90
2022-11-20T19:13:22.979Z,79.40
2022-11-20T19:16:17.877Z,98.90
2022-11-20T19:19:04.389Z,99.90
2022-11-20T19:21:49.784Z,99.90
2022-11-20T19:24:35.133Z,99.90
2022-11-20T19:27:20.753Z,99.90
2022-11-20T19:30:06.724Z,99.90
2022-11-20T19:32:52.144Z,99.90
2022-11-20T19:35:37.773Z,99.90
2022-11-20T19:38:23.132Z,99.90
2022-11-20T19:41:09.628Z,99.90
2022-11-20T19:44:00.812Z,99.90
2022-11-20T19:46:46.478Z,99.90
2022-11-20T19:49:31.839Z,99.90
2022-11-20T19:52:17.135Z,99.90
2022-11-20T19:55:02.863Z,99.90
2022-11-20T19:57:48.211Z,99.90
2022-11-20T20:00:33.693Z,99.90
2022-11-20T20:03:19.292Z,99.90
2022-11-20T20:06:10.894Z,99.90
2022-11-20T20:09:01.506Z,99.90
2022-11-20T20:11:48.092Z,99.90
2022-11-20T20:14:34.812Z,99.90
2022-11-20T20:17:20.167Z,99.90
2022-11-20T20:20:06.377Z,99.90
2022-11-20T20:22:51.876Z,99.90
2022-11-20T20:25:40.295Z,99.90
2022-11-20T20:28:26.832Z,99.90
2022-11-20T20:31:15.974Z,99.90
2022-11-20T20:34:03.394Z,99.90
2022-11-20T20:36:48.946Z,99.90
2022-11-20T20:39:34.571Z,99.90
2022-11-20T20:42:20.100Z,99.90
2022-11-20T20:45:08.514Z,99.90
2022-11-20T20:47:55.871Z,99.90
2022-11-20T20:50:41.806Z,99.90
2022-11-20T20:53:27.740Z,99.90
2022-11-20T20:56:13.027Z,99.90
2022-11-20T20:58:58.605Z,99.90
2022-11-20T21:01:43.731Z,99.90
2022-11-20T21:04:29.328Z,99.90
2022-11-20T21:07:15.196Z,99.90
2022-11-20T21:10:00.754Z,99.90
2022-11-20T21:12:46.322Z,99.90
2022-11-20T21:15:32.022Z,99.90
2022-11-20T21:18:19.228Z,99.90
2022-11-20T21:21:30.191Z,99.90
2022-11-20T21:24:15.507Z,99.90
2022-11-20T21:27:03.243Z,99.90
2022-11-20T21:29:48.464Z,99.90
2022-11-20T21:32:34.099Z,99.90
2022-11-20T21:35:19.584Z,99.90
2022-11-20T21:38:05.252Z,99.90
2022-11-20T21:40:50.678Z,99.90
2022-11-20T21:43:36.812Z,99.90
2022-11-20T21:46:22.513Z,99.90
2022-11-20T21:49:08.351Z,99.90
2022-11-20T21:51:53.974Z,99.90
2022-11-20T21:54:39.530Z,99.90
2022-11-20T21:57:24.665Z,99.90
2022-11-20T22:00:11.628Z,99.90
2022-11-20T22:02:56.939Z,99.90
2022-11-20T22:05:42.460Z,99.90
2022-11-20T22:08:28.198Z,99.90
2022-11-20T22:11:15.972Z,99.90
2022-11-20T22:14:20.290Z,99.90
2022-11-20T22:17:05.988Z,99.90
2022-11-20T22:19:51.359Z,99.90
2022-11-20T22:22:36.952Z,99.90
2022-11-20T22:25:22.483Z,99.90
2022-11-20T22:28:07.975Z,99.90
2022-11-20T22:30:56.761Z,99.90
2022-11-20T22:33:42.232Z,99.90
2022-11-20T22:36:29.356Z,99.90
2022-11-20T22:39:14.730Z,99.90
2022-11-20T22:42:00.258Z,99.90
2022-11-20T22:44:45.668Z,99.90
2022-11-20T22:47:31.289Z,99.90
2022-11-20T22:50:16.715Z,99.90
2022-11-20T22:53:02.313Z,99.90
2022-11-20T22:55:49.655Z,99.90
2022-11-20T22:58:37.214Z,99.90
2022-11-20T23:01:30.566Z,99.90
2022-11-20T23:04:16.291Z,99.90
2022-11-20T23:07:01.939Z,99.90
2022-11-20T23:09:47.425Z,99.90
2022-11-20T23:12:32.972Z,99.90
2022-11-20T23:15:18.411Z,99.90
2022-11-20T23:18:04.164Z,99.90
2022-11-20T23:20:49.866Z,99.90
2022-11-20T23:23:35.217Z,99.90
2022-11-20T23:26:23.592Z,99.90
2022-11-20T23:29:09.135Z,99.90
2022-11-20T23:31:54.640Z,99.90
2022-11-20T23:34:40.497Z,99.90
2022-11-20T23:37:25.673Z,99.90
2022-11-20T23:40:11.584Z,99.90
2022-11-20T23:43:15.069Z,99.90
2022-11-20T23:46:01.556Z,99.90
2022-11-20T23:48:47.004Z,99.90
2022-11-20T23:51:32.550Z,99.90
2022-11-20T23:54:17.980Z,99.90
2022-11-20T23:57:03.761Z,99.90
2022-11-20T23:59:48.914Z,99.90
